KMLE

Millard Airport

Omaha, Nebraska, USA
METAR KMLE 230955Z AUTO 28005KT 10SM SCT032 M02/M03 A3020 RMK AO2 T10181035
Observed Flight Rules
Feb-23 @ 09:55 UTC (32 minutes ago) Visual Flight Rules
Wind Visibility Clouds
280° at 5 knots 10 miles
  • Scattered at 3,200' AGL
Temperatures Readings
Current -2°C / 28°F
Dewpoint -4°C / 25°F
Humidity 86%
Altimeter 30.2" Hg
Pressure 1023 hPa
Elevation 320
METAR KMLE 230955Z AUTO 28005KT 10SM SCT032 M02/M03 A3020 RMK AO2 T10181035
Observed Flight Rules
Feb-23 @ 09:55 UTC
(32 minutes ago)
VFR
Wind Visibility
280° at 5 knots 10 miles
Clouds
  • Scattered at 3,200' AGL
Temperature Dewpoint
-2°C / 28°F -4°C / 25°F
Humidity Altimeter Pressure
86% 30.2" Hg 1023 hPa